sensor_id;sensor_type;location;lat;lon;timestamp;temperature;humidity
54202;DHT22;40108;53.152;5.844;2023-04-07T00:00:50;7.00;98.40
54202;DHT22;40108;53.152;5.844;2023-04-07T00:03:16;7.00;98.40
54202;DHT22;40108;53.152;5.844;2023-04-07T00:05:42;7.00;98.50
54202;DHT22;40108;53.152;5.844;2023-04-07T00:08:07;7.00;98.50
54202;DHT22;40108;53.152;5.844;2023-04-07T00:10:34;7.00;98.40
54202;DHT22;40108;53.152;5.844;2023-04-07T00:12:59;7.00;98.50
54202;DHT22;40108;53.152;5.844;2023-04-07T00:15:25;7.00;98.50
54202;DHT22;40108;53.152;5.844;2023-04-07T00:17:51;6.90;98.50
54202;DHT22;40108;53.152;5.844;2023-04-07T00:20:17;7.00;98.50
54202;DHT22;40108;53.152;5.844;2023-04-07T00:22:42;7.00;98.50
54202;DHT22;40108;53.152;5.844;2023-04-07T00:25:08;7.00;98.50
54202;DHT22;40108;53.152;5.844;2023-04-07T00:27:35;7.00;98.50
54202;DHT22;40108;53.152;5.844;2023-04-07T00:30:01;7.00;98.50
54202;DHT22;40108;53.152;5.844;2023-04-07T00:32:27;7.00;98.50
54202;DHT22;40108;53.152;5.844;2023-04-07T00:34:53;7.00;98.50
54202;DHT22;40108;53.152;5.844;2023-04-07T00:37:18;7.00;98.50
54202;DHT22;40108;53.152;5.844;2023-04-07T00:39:44;7.00;98.50
54202;DHT22;40108;53.152;5.844;2023-04-07T00:42:11;7.00;98.50
54202;DHT22;40108;53.152;5.844;2023-04-07T00:44:37;7.00;98.50
54202;DHT22;40108;53.152;5.844;2023-04-07T00:47:02;7.00;98.50
54202;DHT22;40108;53.152;5.844;2023-04-07T00:49:28;7.00;98.60
54202;DHT22;40108;53.152;5.844;2023-04-07T00:51:56;7.10;98.60
54202;DHT22;40108;53.152;5.844;2023-04-07T00:54:24;7.00;98.60
54202;DHT22;40108;53.152;5.844;2023-04-07T00:56:52;7.10;98.60
54202;DHT22;40108;53.152;5.844;2023-04-07T00:59:18;7.10;98.60
54202;DHT22;40108;53.152;5.844;2023-04-07T01:02:04;7.00;98.60
54202;DHT22;40108;53.152;5.844;2023-04-07T01:05:04;7.10;98.60
54202;DHT22;40108;53.152;5.844;2023-04-07T01:07:38;7.10;98.60
54202;DHT22;40108;53.152;5.844;2023-04-07T01:10:09;7.10;98.60
54202;DHT22;40108;53.152;5.844;2023-04-07T01:12:53;7.10;98.60
54202;DHT22;40108;53.152;5.844;2023-04-07T01:15:23;7.20;98.60
54202;DHT22;40108;53.152;5.844;2023-04-07T01:17:56;7.20;98.60
54202;DHT22;40108;53.152;5.844;2023-04-07T01:20:26;7.20;98.60
54202;DHT22;40108;53.152;5.844;2023-04-07T01:22:57;7.20;98.70
54202;DHT22;40108;53.152;5.844;2023-04-07T01:25:26;7.20;98.60
54202;DHT22;40108;53.152;5.844;2023-04-07T01:30:32;7.20;98.70
54202;DHT22;40108;53.152;5.844;2023-04-07T01:32:59;7.20;98.70
54202;DHT22;40108;53.152;5.844;2023-04-07T01:35:29;7.20;98.70
54202;DHT22;40108;53.152;5.844;2023-04-07T01:37:56;7.20;98.70
54202;DHT22;40108;53.152;5.844;2023-04-07T01:40:25;7.20;98.70
54202;DHT22;40108;53.152;5.844;2023-04-07T01:42:52;7.20;98.70
54202;DHT22;40108;53.152;5.844;2023-04-07T01:45:19;7.20;98.70
54202;DHT22;40108;53.152;5.844;2023-04-07T01:47:46;7.20;98.70
54202;DHT22;40108;53.152;5.844;2023-04-07T01:50:12;7.20;98.70
54202;DHT22;40108;53.152;5.844;2023-04-07T01:52:38;7.20;98.70
54202;DHT22;40108;53.152;5.844;2023-04-07T01:55:05;7.20;98.70
54202;DHT22;40108;53.152;5.844;2023-04-07T01:57:32;7.20;98.70
54202;DHT22;40108;53.152;5.844;2023-04-07T01:59:58;7.20;98.70
54202;DHT22;40108;53.152;5.844;2023-04-07T02:02:24;7.20;98.70
54202;DHT22;40108;53.152;5.844;2023-04-07T02:04:59;7.20;98.70
54202;DHT22;40108;53.152;5.844;2023-04-07T02:10:15;7.20;98.70
54202;DHT22;40108;53.152;5.844;2023-04-07T02:12:43;7.20;98.70
54202;DHT22;40108;53.152;5.844;2023-04-07T02:15:11;7.30;98.80
54202;DHT22;40108;53.152;5.844;2023-04-07T02:17:40;7.30;98.80
54202;DHT22;40108;53.152;5.844;2023-04-07T02:20:08;7.30;98.80
54202;DHT22;40108;53.152;5.844;2023-04-07T02:22:36;7.30;98.70
54202;DHT22;40108;53.152;5.844;2023-04-07T02:25:05;7.30;98.70
54202;DHT22;40108;53.152;5.844;2023-04-07T02:27:41;7.30;98.80
54202;DHT22;40108;53.152;5.844;2023-04-07T02:30:07;7.40;98.80
54202;DHT22;40108;53.152;5.844;2023-04-07T02:32:33;7.30;98.80
54202;DHT22;40108;53.152;5.844;2023-04-07T02:34:59;7.40;98.80
54202;DHT22;40108;53.152;5.844;2023-04-07T02:37:24;7.40;98.80
54202;DHT22;40108;53.152;5.844;2023-04-07T02:39:50;7.50;98.80
54202;DHT22;40108;53.152;5.844;2023-04-07T02:42:16;7.50;98.80
54202;DHT22;40108;53.152;5.844;2023-04-07T02:44:41;7.50;98.80
54202;DHT22;40108;53.152;5.844;2023-04-07T02:47:07;7.60;98.80
54202;DHT22;40108;53.152;5.844;2023-04-07T02:49:33;7.60;98.80
54202;DHT22;40108;53.152;5.844;2023-04-07T02:51:58;7.60;98.80
54202;DHT22;40108;53.152;5.844;2023-04-07T02:54:24;7.60;98.80
54202;DHT22;40108;53.152;5.844;2023-04-07T02:56:50;7.50;98.70
54202;DHT22;40108;53.152;5.844;2023-04-07T02:59:16;7.50;98.80
54202;DHT22;40108;53.152;5.844;2023-04-07T03:01:41;7.50;98.80
54202;DHT22;40108;53.152;5.844;2023-04-07T03:04:07;7.60;98.80
54202;DHT22;40108;53.152;5.844;2023-04-07T03:06:33;7.60;98.80
54202;DHT22;40108;53.152;5.844;2023-04-07T03:08:58;7.60;98.80
54202;DHT22;40108;53.152;5.844;2023-04-07T03:11:24;7.70;98.80
54202;DHT22;40108;53.152;5.844;2023-04-07T03:13:50;7.70;98.80
54202;DHT22;40108;53.152;5.844;2023-04-07T03:16:19;7.70;98.80
54202;DHT22;40108;53.152;5.844;2023-04-07T03:18:45;7.70;98.80
54202;DHT22;40108;53.152;5.844;2023-04-07T03:21:12;7.70;98.80
54202;DHT22;40108;53.152;5.844;2023-04-07T03:23:37;7.70;98.80
54202;DHT22;40108;53.152;5.844;2023-04-07T03:26:03;7.70;98.80
54202;DHT22;40108;53.152;5.844;2023-04-07T03:28:29;7.70;98.80
54202;DHT22;40108;53.152;5.844;2023-04-07T03:30:54;7.70;98.80
54202;DHT22;40108;53.152;5.844;2023-04-07T03:33:20;7.70;98.80
54202;DHT22;40108;53.152;5.844;2023-04-07T03:35:46;7.70;98.80
54202;DHT22;40108;53.152;5.844;2023-04-07T03:38:12;7.70;98.80
54202;DHT22;40108;53.152;5.844;2023-04-07T03:40:37;7.70;98.80
54202;DHT22;40108;53.152;5.844;2023-04-07T03:43:03;7.70;98.80
54202;DHT22;40108;53.152;5.844;2023-04-07T03:45:29;7.60;98.80
54202;DHT22;40108;53.152;5.844;2023-04-07T03:47:55;7.60;98.80
54202;DHT22;40108;53.152;5.844;2023-04-07T03:50:20;7.60;98.80
54202;DHT22;40108;53.152;5.844;2023-04-07T03:52:46;7.60;98.80
54202;DHT22;40108;53.152;5.844;2023-04-07T03:55:12;7.70;98.80
54202;DHT22;40108;53.152;5.844;2023-04-07T03:57:37;7.70;98.80
54202;DHT22;40108;53.152;5.844;2023-04-07T04:00:04;7.60;98.80
54202;DHT22;40108;53.152;5.844;2023-04-07T04:02:30;7.70;98.80
54202;DHT22;40108;53.152;5.844;2023-04-07T04:04:55;7.70;98.80
54202;DHT22;40108;53.152;5.844;2023-04-07T04:07:21;7.60;98.80
54202;DHT22;40108;53.152;5.844;2023-04-07T04:09:47;7.50;98.70
54202;DHT22;40108;53.152;5.844;2023-04-07T04:12:12;7.60;98.80
54202;DHT22;40108;53.152;5.844;2023-04-07T04:14:38;7.50;98.80
54202;DHT22;40108;53.152;5.844;2023-04-07T04:17:04;7.50;98.80
54202;DHT22;40108;53.152;5.844;2023-04-07T04:19:30;7.50;98.80
54202;DHT22;40108;53.152;5.844;2023-04-07T04:21:55;7.50;98.80
54202;DHT22;40108;53.152;5.844;2023-04-07T04:24:21;7.50;98.80
54202;DHT22;40108;53.152;5.844;2023-04-07T04:26:47;7.40;98.80
54202;DHT22;40108;53.152;5.844;2023-04-07T04:29:12;7.40;98.80
54202;DHT22;40108;53.152;5.844;2023-04-07T04:31:38;7.40;98.80
54202;DHT22;40108;53.152;5.844;2023-04-07T04:34:04;7.40;98.80
54202;DHT22;40108;53.152;5.844;2023-04-07T04:36:29;7.40;98.80
54202;DHT22;40108;53.152;5.844;2023-04-07T04:38:55;7.40;98.80
54202;DHT22;40108;53.152;5.844;2023-04-07T04:41:21;7.40;98.80
54202;DHT22;40108;53.152;5.844;2023-04-07T04:43:47;7.40;98.80
54202;DHT22;40108;53.152;5.844;2023-04-07T04:46:12;7.40;98.80
54202;DHT22;40108;53.152;5.844;2023-04-07T04:48:38;7.40;98.80
54202;DHT22;40108;53.152;5.844;2023-04-07T04:51:04;7.40;98.80
54202;DHT22;40108;53.152;5.844;2023-04-07T04:53:30;7.40;98.80
54202;DHT22;40108;53.152;5.844;2023-04-07T04:55:56;7.40;98.80
54202;DHT22;40108;53.152;5.844;2023-04-07T04:58:21;7.40;98.80
54202;DHT22;40108;53.152;5.844;2023-04-07T05:00:47;7.40;98.80
54202;DHT22;40108;53.152;5.844;2023-04-07T05:03:13;7.40;98.80
54202;DHT22;40108;53.152;5.844;2023-04-07T05:05:38;7.40;98.80
54202;DHT22;40108;53.152;5.844;2023-04-07T05:08:04;7.40;98.80
54202;DHT22;40108;53.152;5.844;2023-04-07T05:10:30;7.40;98.90
54202;DHT22;40108;53.152;5.844;2023-04-07T05:12:56;7.40;98.80
54202;DHT22;40108;53.152;5.844;2023-04-07T05:15:21;7.40;98.80
54202;DHT22;40108;53.152;5.844;2023-04-07T05:17:47;7.40;98.80
54202;DHT22;40108;53.152;5.844;2023-04-07T05:20:15;7.40;98.80
54202;DHT22;40108;53.152;5.844;2023-04-07T05:22:41;7.40;98.80
54202;DHT22;40108;53.152;5.844;2023-04-07T05:25:07;7.40;98.80
54202;DHT22;40108;53.152;5.844;2023-04-07T05:27:33;7.40;98.80
54202;DHT22;40108;53.152;5.844;2023-04-07T05:29:59;7.40;98.80
54202;DHT22;40108;53.152;5.844;2023-04-07T05:32:26;7.40;98.80
54202;DHT22;40108;53.152;5.844;2023-04-07T05:34:52;7.40;98.80
54202;DHT22;40108;53.152;5.844;2023-04-07T05:37:18;7.40;98.80
54202;DHT22;40108;53.152;5.844;2023-04-07T05:39:44;7.30;98.80
54202;DHT22;40108;53.152;5.844;2023-04-07T05:42:09;7.40;98.80
54202;DHT22;40108;53.152;5.844;2023-04-07T05:44:35;7.40;98.80
54202;DHT22;40108;53.152;5.844;2023-04-07T05:47:01;7.40;98.90
54202;DHT22;40108;53.152;5.844;2023-04-07T05:49:30;7.30;98.80
54202;DHT22;40108;53.152;5.844;2023-04-07T05:51:56;7.30;98.80
54202;DHT22;40108;53.152;5.844;2023-04-07T05:54:21;7.30;98.80
54202;DHT22;40108;53.152;5.844;2023-04-07T05:56:47;7.40;98.90
54202;DHT22;40108;53.152;5.844;2023-04-07T05:59:13;7.40;98.90
54202;DHT22;40108;53.152;5.844;2023-04-07T06:01:40;7.30;98.80
54202;DHT22;40108;53.152;5.844;2023-04-07T06:04:06;7.40;98.80
54202;DHT22;40108;53.152;5.844;2023-04-07T06:06:32;7.40;98.90
54202;DHT22;40108;53.152;5.844;2023-04-07T06:08:58;7.40;98.80
54202;DHT22;40108;53.152;5.844;2023-04-07T06:11:25;7.40;98.90
54202;DHT22;40108;53.152;5.844;2023-04-07T06:13:51;7.40;98.90
54202;DHT22;40108;53.152;5.844;2023-04-07T06:16:17;7.40;98.90
54202;DHT22;40108;53.152;5.844;2023-04-07T06:18:43;7.40;98.90
54202;DHT22;40108;53.152;5.844;2023-04-07T06:21:09;7.40;98.90
54202;DHT22;40108;53.152;5.844;2023-04-07T06:23:35;7.40;98.90
54202;DHT22;40108;53.152;5.844;2023-04-07T06:26:01;7.40;98.90
54202;DHT22;40108;53.152;5.844;2023-04-07T06:28:26;7.40;98.90
54202;DHT22;40108;53.152;5.844;2023-04-07T06:30:52;7.40;98.90
54202;DHT22;40108;53.152;5.844;2023-04-07T06:33:18;7.40;98.90
54202;DHT22;40108;53.152;5.844;2023-04-07T06:35:44;7.40;98.90
54202;DHT22;40108;53.152;5.844;2023-04-07T06:38:09;7.40;98.90
54202;DHT22;40108;53.152;5.844;2023-04-07T06:40:36;7.40;98.90
54202;DHT22;40108;53.152;5.844;2023-04-07T06:43:02;7.40;98.90
54202;DHT22;40108;53.152;5.844;2023-04-07T06:45:28;7.40;98.90
54202;DHT22;40108;53.152;5.844;2023-04-07T06:47:54;7.40;98.90
54202;DHT22;40108;53.152;5.844;2023-04-07T06:50:19;7.40;98.90
54202;DHT22;40108;53.152;5.844;2023-04-07T06:52:46;7.40;98.90
54202;DHT22;40108;53.152;5.844;2023-04-07T06:55:12;7.40;98.90
54202;DHT22;40108;53.152;5.844;2023-04-07T06:57:38;7.40;98.90
54202;DHT22;40108;53.152;5.844;2023-04-07T07:00:04;7.40;98.90
54202;DHT22;40108;53.152;5.844;2023-04-07T07:02:32;7.40;98.90
54202;DHT22;40108;53.152;5.844;2023-04-07T07:04:58;7.40;98.90
54202;DHT22;40108;53.152;5.844;2023-04-07T07:07:24;7.40;98.90
54202;DHT22;40108;53.152;5.844;2023-04-07T07:09:51;7.50;98.90
54202;DHT22;40108;53.152;5.844;2023-04-07T07:12:16;7.40;98.90
54202;DHT22;40108;53.152;5.844;2023-04-07T07:14:42;7.40;98.80
54202;DHT22;40108;53.152;5.844;2023-04-07T07:17:08;7.40;98.80
54202;DHT22;40108;53.152;5.844;2023-04-07T07:19:34;7.40;98.80
54202;DHT22;40108;53.152;5.844;2023-04-07T07:22:00;7.50;98.80
54202;DHT22;40108;53.152;5.844;2023-04-07T07:24:28;7.50;98.80
54202;DHT22;40108;53.152;5.844;2023-04-07T07:26:55;7.50;98.80
54202;DHT22;40108;53.152;5.844;2023-04-07T07:29:21;7.50;98.80
54202;DHT22;40108;53.152;5.844;2023-04-07T07:31:47;7.50;98.80
54202;DHT22;40108;53.152;5.844;2023-04-07T07:34:13;7.50;98.80
54202;DHT22;40108;53.152;5.844;2023-04-07T07:36:38;7.60;98.80
54202;DHT22;40108;53.152;5.844;2023-04-07T07:39:04;7.50;98.80
54202;DHT22;40108;53.152;5.844;2023-04-07T07:41:30;7.50;98.80
54202;DHT22;40108;53.152;5.844;2023-04-07T07:43:56;7.50;98.80
54202;DHT22;40108;53.152;5.844;2023-04-07T07:46:22;7.60;98.80
54202;DHT22;40108;53.152;5.844;2023-04-07T07:48:50;7.60;98.80
54202;DHT22;40108;53.152;5.844;2023-04-07T07:51:16;7.70;98.80
54202;DHT22;40108;53.152;5.844;2023-04-07T07:53:43;7.70;98.60
54202;DHT22;40108;53.152;5.844;2023-04-07T07:56:09;7.70;98.60
54202;DHT22;40108;53.152;5.844;2023-04-07T07:58:35;7.70;98.70
54202;DHT22;40108;53.152;5.844;2023-04-07T08:01:01;7.70;98.60
54202;DHT22;40108;53.152;5.844;2023-04-07T08:03:27;7.70;98.60
54202;DHT22;40108;53.152;5.844;2023-04-07T08:05:53;7.70;98.60
54202;DHT22;40108;53.152;5.844;2023-04-07T08:08:18;7.70;98.40
54202;DHT22;40108;53.152;5.844;2023-04-07T08:10:44;7.70;98.50
54202;DHT22;40108;53.152;5.844;2023-04-07T08:13:10;7.70;98.50
54202;DHT22;40108;53.152;5.844;2023-04-07T08:15:36;7.70;98.50
54202;DHT22;40108;53.152;5.844;2023-04-07T08:18:02;7.70;98.50
54202;DHT22;40108;53.152;5.844;2023-04-07T08:20:32;7.70;98.40
54202;DHT22;40108;53.152;5.844;2023-04-07T08:22:58;7.70;98.30
54202;DHT22;40108;53.152;5.844;2023-04-07T08:25:24;7.70;98.40
54202;DHT22;40108;53.152;5.844;2023-04-07T08:27:50;7.70;98.40
54202;DHT22;40108;53.152;5.844;2023-04-07T08:30:16;7.70;98.40
54202;DHT22;40108;53.152;5.844;2023-04-07T08:32:44;7.70;98.30
54202;DHT22;40108;53.152;5.844;2023-04-07T08:35:11;7.80;98.30
54202;DHT22;40108;53.152;5.844;2023-04-07T08:37:37;7.70;98.10
54202;DHT22;40108;53.152;5.844;2023-04-07T08:40:04;7.70;98.30
54202;DHT22;40108;53.152;5.844;2023-04-07T08:42:31;7.80;98.20
54202;DHT22;40108;53.152;5.844;2023-04-07T08:45:03;7.80;98.30
54202;DHT22;40108;53.152;5.844;2023-04-07T08:47:30;7.80;98.20
54202;DHT22;40108;53.152;5.844;2023-04-07T08:50:01;7.80;98.00
54202;DHT22;40108;53.152;5.844;2023-04-07T08:52:40;7.90;98.10
54202;DHT22;40108;53.152;5.844;2023-04-07T08:55:08;7.80;98.20
54202;DHT22;40108;53.152;5.844;2023-04-07T08:57:35;7.90;98.20
54202;DHT22;40108;53.152;5.844;2023-04-07T09:00:02;7.90;98.20
54202;DHT22;40108;53.152;5.844;2023-04-07T09:02:38;7.90;98.20
54202;DHT22;40108;53.152;5.844;2023-04-07T09:05:06;7.90;98.00
54202;DHT22;40108;53.152;5.844;2023-04-07T09:07:35;7.90;98.10
54202;DHT22;40108;53.152;5.844;2023-04-07T09:10:01;7.90;98.10
54202;DHT22;40108;53.152;5.844;2023-04-07T09:12:28;8.00;98.10
54202;DHT22;40108;53.152;5.844;2023-04-07T09:14:54;8.10;98.10
54202;DHT22;40108;53.152;5.844;2023-04-07T09:17:20;8.10;98.00
54202;DHT22;40108;53.152;5.844;2023-04-07T09:19:46;8.20;98.00
54202;DHT22;40108;53.152;5.844;2023-04-07T09:22:12;8.20;97.30
54202;DHT22;40108;53.152;5.844;2023-04-07T09:24:40;8.20;97.60
54202;DHT22;40108;53.152;5.844;2023-04-07T09:29:39;8.20;96.80
54202;DHT22;40108;53.152;5.844;2023-04-07T09:32:05;8.20;97.00
54202;DHT22;40108;53.152;5.844;2023-04-07T09:34:37;8.30;96.70
54202;DHT22;40108;53.152;5.844;2023-04-07T09:37:04;8.30;96.50
54202;DHT22;40108;53.152;5.844;2023-04-07T09:39:31;8.50;97.00
54202;DHT22;40108;53.152;5.844;2023-04-07T09:41:57;8.60;96.80
54202;DHT22;40108;53.152;5.844;2023-04-07T09:44:23;8.60;96.60
54202;DHT22;40108;53.152;5.844;2023-04-07T09:46:56;8.70;96.70
54202;DHT22;40108;53.152;5.844;2023-04-07T09:49:23;8.70;96.30
54202;DHT22;40108;53.152;5.844;2023-04-07T09:54:39;8.70;95.30
54202;DHT22;40108;53.152;5.844;2023-04-07T09:57:07;8.70;96.10
54202;DHT22;40108;53.152;5.844;2023-04-07T09:59:35;8.80;96.20
54202;DHT22;40108;53.152;5.844;2023-04-07T10:02:01;8.80;96.00
54202;DHT22;40108;53.152;5.844;2023-04-07T10:04:27;8.90;94.80
54202;DHT22;40108;53.152;5.844;2023-04-07T10:06:54;8.90;95.00
54202;DHT22;40108;53.152;5.844;2023-04-07T10:09:25;8.90;95.20
54202;DHT22;40108;53.152;5.844;2023-04-07T10:11:52;9.00;94.50
54202;DHT22;40108;53.152;5.844;2023-04-07T10:14:19;9.10;94.30
54202;DHT22;40108;53.152;5.844;2023-04-07T10:16:46;9.10;93.90
54202;DHT22;40108;53.152;5.844;2023-04-07T10:19:13;9.20;93.50
54202;DHT22;40108;53.152;5.844;2023-04-07T10:21:40;9.20;93.40
54202;DHT22;40108;53.152;5.844;2023-04-07T10:27:03;9.20;93.30
54202;DHT22;40108;53.152;5.844;2023-04-07T10:29:34;9.20;93.50
54202;DHT22;40108;53.152;5.844;2023-04-07T10:32:01;9.20;91.70
54202;DHT22;40108;53.152;5.844;2023-04-07T10:37:13;9.30;92.40
54202;DHT22;40108;53.152;5.844;2023-04-07T10:39:42;9.40;92.70
54202;DHT22;40108;53.152;5.844;2023-04-07T10:45:07;9.40;92.00
54202;DHT22;40108;53.152;5.844;2023-04-07T10:47:34;9.40;90.90
54202;DHT22;40108;53.152;5.844;2023-04-07T10:50:19;9.40;91.70
54202;DHT22;40108;53.152;5.844;2023-04-07T10:53:09;9.50;91.40
54202;DHT22;40108;53.152;5.844;2023-04-07T10:55:39;9.50;90.50
54202;DHT22;40108;53.152;5.844;2023-04-07T10:58:23;9.60;90.80
54202;DHT22;40108;53.152;5.844;2023-04-07T11:03:37;9.60;90.10
54202;DHT22;40108;53.152;5.844;2023-04-07T11:06:12;9.70;89.50
54202;DHT22;40108;53.152;5.844;2023-04-07T11:08:46;9.70;90.50
54202;DHT22;40108;53.152;5.844;2023-04-07T11:11:14;9.80;89.90
54202;DHT22;40108;53.152;5.844;2023-04-07T11:13:58;9.70;89.40
54202;DHT22;40108;53.152;5.844;2023-04-07T11:16:37;9.70;89.90
54202;DHT22;40108;53.152;5.844;2023-04-07T11:19:04;9.80;89.50
54202;DHT22;40108;53.152;5.844;2023-04-07T11:21:29;9.90;89.00
54202;DHT22;40108;53.152;5.844;2023-04-07T11:23:55;10.00;89.50
54202;DHT22;40108;53.152;5.844;2023-04-07T11:26:21;10.00;89.30
54202;DHT22;40108;53.152;5.844;2023-04-07T11:28:52;10.10;89.30
54202;DHT22;40108;53.152;5.844;2023-04-07T11:31:25;10.20;88.30
54202;DHT22;40108;53.152;5.844;2023-04-07T11:33:56;10.20;88.20
54202;DHT22;40108;53.152;5.844;2023-04-07T11:36:33;10.20;86.90
54202;DHT22;40108;53.152;5.844;2023-04-07T11:39:00;10.20;86.50
54202;DHT22;40108;53.152;5.844;2023-04-07T11:41:28;10.20;86.50
54202;DHT22;40108;53.152;5.844;2023-04-07T11:44:11;10.20;86.40
54202;DHT22;40108;53.152;5.844;2023-04-07T11:46:51;10.20;86.70
54202;DHT22;40108;53.152;5.844;2023-04-07T11:49:18;10.20;86.70
54202;DHT22;40108;53.152;5.844;2023-04-07T11:51:44;10.20;87.10
54202;DHT22;40108;53.152;5.844;2023-04-07T11:54:10;10.20;86.60
54202;DHT22;40108;53.152;5.844;2023-04-07T11:56:46;10.20;86.40
54202;DHT22;40108;53.152;5.844;2023-04-07T11:59:20;10.20;85.70
54202;DHT22;40108;53.152;5.844;2023-04-07T12:01:48;10.20;85.20
54202;DHT22;40108;53.152;5.844;2023-04-07T12:04:14;10.20;86.30
54202;DHT22;40108;53.152;5.844;2023-04-07T12:06:40;10.30;86.20
54202;DHT22;40108;53.152;5.844;2023-04-07T12:09:42;10.30;85.00
54202;DHT22;40108;53.152;5.844;2023-04-07T12:12:08;10.40;86.50
54202;DHT22;40108;53.152;5.844;2023-04-07T12:14:35;10.50;85.40
54202;DHT22;40108;53.152;5.844;2023-04-07T12:17:01;10.60;85.10
54202;DHT22;40108;53.152;5.844;2023-04-07T12:19:29;10.50;85.80
54202;DHT22;40108;53.152;5.844;2023-04-07T12:21:55;10.60;84.80
54202;DHT22;40108;53.152;5.844;2023-04-07T12:24:21;10.60;84.70
54202;DHT22;40108;53.152;5.844;2023-04-07T12:26:48;10.60;84.60
54202;DHT22;40108;53.152;5.844;2023-04-07T12:29:15;10.60;84.30
54202;DHT22;40108;53.152;5.844;2023-04-07T12:31:41;10.70;84.90
54202;DHT22;40108;53.152;5.844;2023-04-07T12:34:08;10.70;85.40
54202;DHT22;40108;53.152;5.844;2023-04-07T12:36:34;10.70;84.80
54202;DHT22;40108;53.152;5.844;2023-04-07T12:39:00;10.70;84.70
54202;DHT22;40108;53.152;5.844;2023-04-07T12:41:26;10.60;84.10
54202;DHT22;40108;53.152;5.844;2023-04-07T12:43:52;10.60;85.00
54202;DHT22;40108;53.152;5.844;2023-04-07T12:46:18;10.60;85.70
54202;DHT22;40108;53.152;5.844;2023-04-07T12:48:44;10.60;84.90
54202;DHT22;40108;53.152;5.844;2023-04-07T12:51:10;10.60;85.30
54202;DHT22;40108;53.152;5.844;2023-04-07T12:53:36;10.50;83.80
54202;DHT22;40108;53.152;5.844;2023-04-07T12:56:02;10.40;84.70
54202;DHT22;40108;53.152;5.844;2023-04-07T12:58:27;10.30;84.20
54202;DHT22;40108;53.152;5.844;2023-04-07T13:00:53;10.30;84.20
54202;DHT22;40108;53.152;5.844;2023-04-07T13:03:19;10.20;84.70
54202;DHT22;40108;53.152;5.844;2023-04-07T13:05:45;10.20;84.50
54202;DHT22;40108;53.152;5.844;2023-04-07T13:08:10;10.20;84.80
54202;DHT22;40108;53.152;5.844;2023-04-07T13:10:37;10.20;84.10
54202;DHT22;40108;53.152;5.844;2023-04-07T13:13:02;10.20;84.60
54202;DHT22;40108;53.152;5.844;2023-04-07T13:15:28;10.20;84.60
54202;DHT22;40108;53.152;5.844;2023-04-07T13:17:56;10.20;84.60
54202;DHT22;40108;53.152;5.844;2023-04-07T13:20:22;10.30;84.80
54202;DHT22;40108;53.152;5.844;2023-04-07T13:22:51;10.30;84.00
54202;DHT22;40108;53.152;5.844;2023-04-07T13:25:16;10.30;83.70
54202;DHT22;40108;53.152;5.844;2023-04-07T13:27:42;10.30;83.10
54202;DHT22;40108;53.152;5.844;2023-04-07T13:30:08;10.40;83.40
54202;DHT22;40108;53.152;5.844;2023-04-07T13:32:34;10.30;82.50
54202;DHT22;40108;53.152;5.844;2023-04-07T13:35:00;10.30;83.20
54202;DHT22;40108;53.152;5.844;2023-04-07T13:37:26;10.40;82.90
54202;DHT22;40108;53.152;5.844;2023-04-07T13:39:52;10.40;83.20
54202;DHT22;40108;53.152;5.844;2023-04-07T13:42:17;10.50;84.30
54202;DHT22;40108;53.152;5.844;2023-04-07T13:44:45;10.60;84.20
54202;DHT22;40108;53.152;5.844;2023-04-07T13:47:13;10.60;83.80
54202;DHT22;40108;53.152;5.844;2023-04-07T13:49:47;10.60;84.00
54202;DHT22;40108;53.152;5.844;2023-04-07T13:52:14;10.70;83.70
54202;DHT22;40108;53.152;5.844;2023-04-07T13:54:40;10.70;82.70
54202;DHT22;40108;53.152;5.844;2023-04-07T13:57:06;10.70;82.40
54202;DHT22;40108;53.152;5.844;2023-04-07T13:59:32;10.70;82.40
54202;DHT22;40108;53.152;5.844;2023-04-07T14:01:58;10.70;82.30
54202;DHT22;40108;53.152;5.844;2023-04-07T14:04:24;10.70;82.20
54202;DHT22;40108;53.152;5.844;2023-04-07T14:06:50;10.70;82.40
54202;DHT22;40108;53.152;5.844;2023-04-07T14:09:15;10.80;82.20
54202;DHT22;40108;53.152;5.844;2023-04-07T14:11:41;10.80;82.50
54202;DHT22;40108;53.152;5.844;2023-04-07T14:14:07;10.80;82.40
54202;DHT22;40108;53.152;5.844;2023-04-07T14:16:32;10.90;82.50
54202;DHT22;40108;53.152;5.844;2023-04-07T14:18:58;10.90;82.40
54202;DHT22;40108;53.152;5.844;2023-04-07T14:21:24;10.90;82.10
54202;DHT22;40108;53.152;5.844;2023-04-07T14:23:52;10.90;82.50
54202;DHT22;40108;53.152;5.844;2023-04-07T14:26:17;10.90;82.40
54202;DHT22;40108;53.152;5.844;2023-04-07T14:28:43;10.90;82.20
54202;DHT22;40108;53.152;5.844;2023-04-07T14:31:13;10.80;82.40
54202;DHT22;40108;53.152;5.844;2023-04-07T14:33:43;10.90;82.40
54202;DHT22;40108;53.152;5.844;2023-04-07T14:36:08;10.90;82.50
54202;DHT22;40108;53.152;5.844;2023-04-07T14:38:34;11.00;82.00
54202;DHT22;40108;53.152;5.844;2023-04-07T14:41:00;11.10;81.10
54202;DHT22;40108;53.152;5.844;2023-04-07T14:43:28;11.10;81.60
54202;DHT22;40108;53.152;5.844;2023-04-07T14:45:53;11.10;80.80
54202;DHT22;40108;53.152;5.844;2023-04-07T14:48:20;11.20;81.30
54202;DHT22;40108;53.152;5.844;2023-04-07T14:50:46;11.20;80.30
54202;DHT22;40108;53.152;5.844;2023-04-07T14:53:12;11.20;80.50
54202;DHT22;40108;53.152;5.844;2023-04-07T14:55:40;11.30;80.60
54202;DHT22;40108;53.152;5.844;2023-04-07T14:58:06;11.40;80.30
54202;DHT22;40108;53.152;5.844;2023-04-07T15:00:33;11.50;79.80
54202;DHT22;40108;53.152;5.844;2023-04-07T15:02:58;11.50;80.00
54202;DHT22;40108;53.152;5.844;2023-04-07T15:05:24;11.50;79.90
54202;DHT22;40108;53.152;5.844;2023-04-07T15:07:52;11.50;79.50
54202;DHT22;40108;53.152;5.844;2023-04-07T15:10:18;11.50;79.30
54202;DHT22;40108;53.152;5.844;2023-04-07T15:12:44;11.40;79.50
54202;DHT22;40108;53.152;5.844;2023-04-07T15:15:14;11.40;79.90
54202;DHT22;40108;53.152;5.844;2023-04-07T15:17:40;11.30;79.50
54202;DHT22;40108;53.152;5.844;2023-04-07T15:20:07;11.20;80.30
54202;DHT22;40108;53.152;5.844;2023-04-07T15:22:33;11.20;80.70
54202;DHT22;40108;53.152;5.844;2023-04-07T15:24:58;11.20;80.60
54202;DHT22;40108;53.152;5.844;2023-04-07T15:27:24;11.20;81.20
54202;DHT22;40108;53.152;5.844;2023-04-07T15:29:50;11.10;81.20
54202;DHT22;40108;53.152;5.844;2023-04-07T15:32:16;11.00;81.30
54202;DHT22;40108;53.152;5.844;2023-04-07T15:34:41;11.00;81.60
54202;DHT22;40108;53.152;5.844;2023-04-07T15:37:07;10.90;81.60
54202;DHT22;40108;53.152;5.844;2023-04-07T15:39:33;10.90;81.20
54202;DHT22;40108;53.152;5.844;2023-04-07T15:41:58;10.90;81.80
54202;DHT22;40108;53.152;5.844;2023-04-07T15:44:25;10.90;82.00
54202;DHT22;40108;53.152;5.844;2023-04-07T15:46:50;10.90;81.70
54202;DHT22;40108;53.152;5.844;2023-04-07T15:49:17;10.90;82.10
54202;DHT22;40108;53.152;5.844;2023-04-07T15:51:46;10.90;82.20
54202;DHT22;40108;53.152;5.844;2023-04-07T15:54:12;10.90;82.50
54202;DHT22;40108;53.152;5.844;2023-04-07T15:56:38;10.90;82.60
54202;DHT22;40108;53.152;5.844;2023-04-07T15:59:03;10.80;82.60
54202;DHT22;40108;53.152;5.844;2023-04-07T16:01:29;10.80;82.80
54202;DHT22;40108;53.152;5.844;2023-04-07T16:03:55;10.80;82.50